Terminal Aerodrome Forecast
Issued by NWS

Home | Current Version | Previous Version | Text Only | Print | Product List | Glossary On
Versions: 1 2 3 4 5 6 7 8 9 10 11 12
000
FTUS42 TJSJ 221738
TAFJMZ
TAF
TJMZ 221738Z 2218/2318 29009KT P6SM VCSH SCT025 BKN040
     FM222200 07005KT P6SM FEW035 SCT070 SCT120
     FM230300 00000KT P6SM SKC
     FM231400 26007KT P6SM FEW025 SCT040
      AMD NOT SKED 2223/2311=

USA.gov is the U.S. government's official web portal to all federal, state and local government web resources and services.